sensor_id;sensor_type;location;lat;lon;timestamp;P1;durP1;ratioP1;P2;durP2;ratioP2
12312;SDS011;6220;53.580;9.758;2022-07-29T00:02:20;2.67;;;1.50;;
12312;SDS011;6220;53.580;9.758;2022-07-29T00:04:48;4.23;;;2.00;;
12312;SDS011;6220;53.580;9.758;2022-07-29T00:07:13;3.13;;;1.90;;
12312;SDS011;6220;53.580;9.758;2022-07-29T00:09:39;3.43;;;1.70;;
12312;SDS011;6220;53.580;9.758;2022-07-29T00:12:04;4.47;;;2.10;;
12312;SDS011;6220;53.580;9.758;2022-07-29T00:14:30;7.47;;;2.30;;
12312;SDS011;6220;53.580;9.758;2022-07-29T00:16:55;2.47;;;1.80;;
12312;SDS011;6220;53.580;9.758;2022-07-29T00:19:21;2.97;;;1.73;;
12312;SDS011;6220;53.580;9.758;2022-07-29T00:21:46;1.93;;;1.60;;
12312;SDS011;6220;53.580;9.758;2022-07-29T00:24:11;2.87;;;1.73;;
12312;SDS011;6220;53.580;9.758;2022-07-29T00:26:37;2.37;;;1.63;;
12312;SDS011;6220;53.580;9.758;2022-07-29T00:29:03;4.77;;;2.00;;
12312;SDS011;6220;53.580;9.758;2022-07-29T00:31:28;4.07;;;1.97;;
12312;SDS011;6220;53.580;9.758;2022-07-29T00:33:54;3.07;;;2.00;;
12312;SDS011;6220;53.580;9.758;2022-07-29T00:36:20;3.43;;;1.70;;
12312;SDS011;6220;53.580;9.758;2022-07-29T00:38:48;3.03;;;2.07;;
12312;SDS011;6220;53.580;9.758;2022-07-29T00:41:15;3.63;;;1.73;;
12312;SDS011;6220;53.580;9.758;2022-07-29T00:43:41;3.10;;;1.80;;
12312;SDS011;6220;53.580;9.758;2022-07-29T00:46:06;3.93;;;2.33;;
12312;SDS011;6220;53.580;9.758;2022-07-29T00:48:32;1.67;;;1.50;;
12312;SDS011;6220;53.580;9.758;2022-07-29T00:50:57;5.17;;;2.00;;
12312;SDS011;6220;53.580;9.758;2022-07-29T00:53:23;3.50;;;2.00;;
12312;SDS011;6220;53.580;9.758;2022-07-29T00:55:49;3.00;;;2.10;;
12312;SDS011;6220;53.580;9.758;2022-07-29T00:58:14;4.80;;;2.20;;
12312;SDS011;6220;53.580;9.758;2022-07-29T01:00:40;3.77;;;1.73;;
12312;SDS011;6220;53.580;9.758;2022-07-29T01:03:06;2.77;;;1.90;;
12312;SDS011;6220;53.580;9.758;2022-07-29T01:05:32;5.10;;;1.90;;
12312;SDS011;6220;53.580;9.758;2022-07-29T01:07:58;6.70;;;2.20;;
12312;SDS011;6220;53.580;9.758;2022-07-29T01:10:23;4.90;;;1.93;;
12312;SDS011;6220;53.580;9.758;2022-07-29T01:12:50;3.20;;;1.97;;
12312;SDS011;6220;53.580;9.758;2022-07-29T01:15:16;4.63;;;2.37;;
12312;SDS011;6220;53.580;9.758;2022-07-29T01:29:04;2.63;;;1.90;;
12312;SDS011;6220;53.580;9.758;2022-07-29T01:31:39;3.27;;;1.77;;
12312;SDS011;6220;53.580;9.758;2022-07-29T01:34:11;4.80;;;1.90;;
12312;SDS011;6220;53.580;9.758;2022-07-29T01:36:43;3.70;;;2.00;;
12312;SDS011;6220;53.580;9.758;2022-07-29T01:39:14;3.80;;;1.73;;
12312;SDS011;6220;53.580;9.758;2022-07-29T01:41:48;3.17;;;2.03;;
12312;SDS011;6220;53.580;9.758;2022-07-29T01:44:20;2.67;;;1.80;;
12312;SDS011;6220;53.580;9.758;2022-07-29T01:46:55;3.57;;;1.73;;
12312;SDS011;6220;53.580;9.758;2022-07-29T01:49:30;3.30;;;1.90;;
12312;SDS011;6220;53.580;9.758;2022-07-29T01:51:59;2.87;;;1.60;;
12312;SDS011;6220;53.580;9.758;2022-07-29T01:54:42;2.43;;;1.77;;
12312;SDS011;6220;53.580;9.758;2022-07-29T01:57:11;3.50;;;2.03;;
12312;SDS011;6220;53.580;9.758;2022-07-29T01:59:38;3.53;;;1.80;;
12312;SDS011;6220;53.580;9.758;2022-07-29T02:02:04;3.80;;;1.73;;
12312;SDS011;6220;53.580;9.758;2022-07-29T02:04:33;3.67;;;1.97;;
12312;SDS011;6220;53.580;9.758;2022-07-29T02:07:01;4.60;;;2.23;;
12312;SDS011;6220;53.580;9.758;2022-07-29T02:09:31;5.03;;;2.10;;
12312;SDS011;6220;53.580;9.758;2022-07-29T02:11:58;2.43;;;1.80;;
12312;SDS011;6220;53.580;9.758;2022-07-29T02:14:24;2.70;;;1.77;;
12312;SDS011;6220;53.580;9.758;2022-07-29T02:16:52;2.70;;;1.70;;
12312;SDS011;6220;53.580;9.758;2022-07-29T02:19:18;5.97;;;2.37;;
12312;SDS011;6220;53.580;9.758;2022-07-29T02:21:45;3.20;;;1.83;;
12312;SDS011;6220;53.580;9.758;2022-07-29T02:24:11;3.23;;;1.90;;
12312;SDS011;6220;53.580;9.758;2022-07-29T02:26:37;4.17;;;2.30;;
12312;SDS011;6220;53.580;9.758;2022-07-29T02:29:05;4.33;;;2.40;;
12312;SDS011;6220;53.580;9.758;2022-07-29T02:31:32;5.67;;;2.10;;
12312;SDS011;6220;53.580;9.758;2022-07-29T02:33:58;2.90;;;2.10;;
12312;SDS011;6220;53.580;9.758;2022-07-29T02:36:26;4.07;;;2.20;;
12312;SDS011;6220;53.580;9.758;2022-07-29T02:38:52;3.57;;;2.33;;
12312;SDS011;6220;53.580;9.758;2022-07-29T02:41:28;3.20;;;2.00;;
12312;SDS011;6220;53.580;9.758;2022-07-29T02:44:02;3.47;;;2.00;;
12312;SDS011;6220;53.580;9.758;2022-07-29T02:46:35;4.57;;;2.07;;
12312;SDS011;6220;53.580;9.758;2022-07-29T02:51:49;3.50;;;2.13;;
12312;SDS011;6220;53.580;9.758;2022-07-29T02:54:20;2.80;;;2.20;;
12312;SDS011;6220;53.580;9.758;2022-07-29T02:56:50;3.90;;;2.17;;
12312;SDS011;6220;53.580;9.758;2022-07-29T02:59:20;4.53;;;2.10;;
12312;SDS011;6220;53.580;9.758;2022-07-29T03:01:47;4.73;;;1.90;;
12312;SDS011;6220;53.580;9.758;2022-07-29T03:04:13;3.17;;;2.20;;
12312;SDS011;6220;53.580;9.758;2022-07-29T03:06:39;3.70;;;1.90;;
12312;SDS011;6220;53.580;9.758;2022-07-29T03:09:06;4.10;;;2.40;;
12312;SDS011;6220;53.580;9.758;2022-07-29T03:11:32;2.93;;;1.90;;
12312;SDS011;6220;53.580;9.758;2022-07-29T03:13:58;2.73;;;2.20;;
12312;SDS011;6220;53.580;9.758;2022-07-29T03:16:23;4.53;;;1.90;;
12312;SDS011;6220;53.580;9.758;2022-07-29T03:18:49;4.77;;;2.50;;
12312;SDS011;6220;53.580;9.758;2022-07-29T03:21:15;6.13;;;2.20;;
12312;SDS011;6220;53.580;9.758;2022-07-29T03:23:44;4.93;;;2.23;;
12312;SDS011;6220;53.580;9.758;2022-07-29T03:26:10;4.93;;;2.10;;
12312;SDS011;6220;53.580;9.758;2022-07-29T03:28:36;3.37;;;2.10;;
12312;SDS011;6220;53.580;9.758;2022-07-29T03:31:01;3.67;;;2.23;;
12312;SDS011;6220;53.580;9.758;2022-07-29T03:33:26;3.80;;;2.30;;
12312;SDS011;6220;53.580;9.758;2022-07-29T03:35:53;4.90;;;2.27;;
12312;SDS011;6220;53.580;9.758;2022-07-29T03:38:19;4.57;;;2.20;;
12312;SDS011;6220;53.580;9.758;2022-07-29T03:40:49;6.00;;;2.70;;
12312;SDS011;6220;53.580;9.758;2022-07-29T03:43:19;3.53;;;2.03;;
12312;SDS011;6220;53.580;9.758;2022-07-29T03:45:47;7.23;;;2.30;;
12312;SDS011;6220;53.580;9.758;2022-07-29T03:48:14;3.20;;;2.20;;
12312;SDS011;6220;53.580;9.758;2022-07-29T03:50:40;6.73;;;2.60;;
12312;SDS011;6220;53.580;9.758;2022-07-29T03:53:06;4.93;;;2.30;;
12312;SDS011;6220;53.580;9.758;2022-07-29T03:55:33;4.87;;;2.60;;
12312;SDS011;6220;53.580;9.758;2022-07-29T03:58:01;6.17;;;2.57;;
12312;SDS011;6220;53.580;9.758;2022-07-29T04:00:27;4.00;;;2.17;;
12312;SDS011;6220;53.580;9.758;2022-07-29T04:02:52;5.03;;;2.20;;
12312;SDS011;6220;53.580;9.758;2022-07-29T04:05:18;4.27;;;2.37;;
12312;SDS011;6220;53.580;9.758;2022-07-29T04:07:44;4.17;;;2.23;;
12312;SDS011;6220;53.580;9.758;2022-07-29T04:10:12;4.83;;;2.37;;
12312;SDS011;6220;53.580;9.758;2022-07-29T04:12:38;5.00;;;2.33;;
12312;SDS011;6220;53.580;9.758;2022-07-29T04:15:03;4.97;;;2.33;;
12312;SDS011;6220;53.580;9.758;2022-07-29T04:17:29;4.10;;;2.30;;
12312;SDS011;6220;53.580;9.758;2022-07-29T04:19:55;3.50;;;2.30;;
12312;SDS011;6220;53.580;9.758;2022-07-29T04:22:20;3.73;;;2.00;;
12312;SDS011;6220;53.580;9.758;2022-07-29T04:24:45;3.23;;;1.93;;
12312;SDS011;6220;53.580;9.758;2022-07-29T04:27:11;5.80;;;2.80;;
12312;SDS011;6220;53.580;9.758;2022-07-29T04:29:36;5.00;;;2.80;;
12312;SDS011;6220;53.580;9.758;2022-07-29T04:32:01;5.63;;;2.40;;
12312;SDS011;6220;53.580;9.758;2022-07-29T04:34:27;4.13;;;2.70;;
12312;SDS011;6220;53.580;9.758;2022-07-29T04:36:52;3.47;;;2.50;;
12312;SDS011;6220;53.580;9.758;2022-07-29T04:39:18;3.70;;;2.47;;
12312;SDS011;6220;53.580;9.758;2022-07-29T04:41:43;4.23;;;2.77;;
12312;SDS011;6220;53.580;9.758;2022-07-29T04:44:09;6.43;;;2.87;;
12312;SDS011;6220;53.580;9.758;2022-07-29T04:46:34;3.87;;;2.47;;
12312;SDS011;6220;53.580;9.758;2022-07-29T04:49:00;3.87;;;2.67;;
12312;SDS011;6220;53.580;9.758;2022-07-29T04:51:26;6.93;;;2.57;;
12312;SDS011;6220;53.580;9.758;2022-07-29T04:53:51;2.90;;;2.40;;
12312;SDS011;6220;53.580;9.758;2022-07-29T04:56:16;3.97;;;2.50;;
12312;SDS011;6220;53.580;9.758;2022-07-29T04:58:42;3.97;;;2.63;;
12312;SDS011;6220;53.580;9.758;2022-07-29T05:01:07;3.37;;;2.27;;
12312;SDS011;6220;53.580;9.758;2022-07-29T05:03:32;4.27;;;2.30;;
12312;SDS011;6220;53.580;9.758;2022-07-29T05:05:58;5.43;;;2.80;;
12312;SDS011;6220;53.580;9.758;2022-07-29T05:08:23;4.37;;;2.37;;
12312;SDS011;6220;53.580;9.758;2022-07-29T05:10:48;5.33;;;2.83;;
12312;SDS011;6220;53.580;9.758;2022-07-29T05:13:14;3.93;;;2.60;;
12312;SDS011;6220;53.580;9.758;2022-07-29T05:15:39;6.13;;;2.93;;
12312;SDS011;6220;53.580;9.758;2022-07-29T05:18:04;5.07;;;3.10;;
12312;SDS011;6220;53.580;9.758;2022-07-29T05:20:30;4.33;;;2.63;;
12312;SDS011;6220;53.580;9.758;2022-07-29T05:22:59;5.83;;;3.10;;
12312;SDS011;6220;53.580;9.758;2022-07-29T05:25:25;6.23;;;2.83;;
12312;SDS011;6220;53.580;9.758;2022-07-29T05:27:50;2.53;;;2.13;;
12312;SDS011;6220;53.580;9.758;2022-07-29T05:30:16;6.80;;;2.87;;
12312;SDS011;6220;53.580;9.758;2022-07-29T05:32:42;6.10;;;2.57;;
12312;SDS011;6220;53.580;9.758;2022-07-29T05:35:07;6.70;;;2.90;;
12312;SDS011;6220;53.580;9.758;2022-07-29T05:37:33;5.00;;;2.90;;
12312;SDS011;6220;53.580;9.758;2022-07-29T05:39:59;7.63;;;3.20;;
12312;SDS011;6220;53.580;9.758;2022-07-29T05:42:24;6.03;;;3.00;;
12312;SDS011;6220;53.580;9.758;2022-07-29T05:44:50;8.47;;;3.00;;
12312;SDS011;6220;53.580;9.758;2022-07-29T05:47:16;4.87;;;2.33;;
12312;SDS011;6220;53.580;9.758;2022-07-29T05:49:41;6.73;;;3.20;;
12312;SDS011;6220;53.580;9.758;2022-07-29T05:52:08;8.77;;;3.00;;
12312;SDS011;6220;53.580;9.758;2022-07-29T05:54:34;7.93;;;2.93;;
12312;SDS011;6220;53.580;9.758;2022-07-29T05:56:59;5.80;;;2.70;;
12312;SDS011;6220;53.580;9.758;2022-07-29T05:59:25;7.77;;;2.67;;
12312;SDS011;6220;53.580;9.758;2022-07-29T06:01:50;4.17;;;2.73;;
12312;SDS011;6220;53.580;9.758;2022-07-29T06:04:15;4.80;;;2.40;;
12312;SDS011;6220;53.580;9.758;2022-07-29T06:06:41;5.43;;;2.70;;
12312;SDS011;6220;53.580;9.758;2022-07-29T06:09:06;4.30;;;2.70;;
12312;SDS011;6220;53.580;9.758;2022-07-29T06:11:32;8.47;;;3.23;;
12312;SDS011;6220;53.580;9.758;2022-07-29T06:13:58;8.37;;;3.03;;
12312;SDS011;6220;53.580;9.758;2022-07-29T06:16:23;5.27;;;2.73;;
12312;SDS011;6220;53.580;9.758;2022-07-29T06:18:48;7.90;;;3.20;;
12312;SDS011;6220;53.580;9.758;2022-07-29T06:21:14;8.37;;;3.13;;
12312;SDS011;6220;53.580;9.758;2022-07-29T06:23:39;4.03;;;2.43;;
12312;SDS011;6220;53.580;9.758;2022-07-29T06:26:05;4.33;;;2.77;;
12312;SDS011;6220;53.580;9.758;2022-07-29T06:28:31;4.70;;;2.70;;
12312;SDS011;6220;53.580;9.758;2022-07-29T06:30:56;6.87;;;3.30;;
12312;SDS011;6220;53.580;9.758;2022-07-29T06:33:22;4.43;;;2.73;;
12312;SDS011;6220;53.580;9.758;2022-07-29T06:35:47;7.37;;;2.80;;
12312;SDS011;6220;53.580;9.758;2022-07-29T06:38:14;6.20;;;3.10;;
12312;SDS011;6220;53.580;9.758;2022-07-29T06:40:43;5.73;;;2.83;;
12312;SDS011;6220;53.580;9.758;2022-07-29T06:43:37;4.87;;;2.77;;
12312;SDS011;6220;53.580;9.758;2022-07-29T06:46:06;6.27;;;2.70;;
12312;SDS011;6220;53.580;9.758;2022-07-29T06:48:33;6.60;;;3.00;;
12312;SDS011;6220;53.580;9.758;2022-07-29T06:51:00;5.90;;;2.63;;
12312;SDS011;6220;53.580;9.758;2022-07-29T06:53:26;6.40;;;2.80;;
12312;SDS011;6220;53.580;9.758;2022-07-29T06:55:52;8.57;;;3.20;;
12312;SDS011;6220;53.580;9.758;2022-07-29T06:58:17;6.30;;;3.20;;
12312;SDS011;6220;53.580;9.758;2022-07-29T07:00:45;8.10;;;3.17;;
12312;SDS011;6220;53.580;9.758;2022-07-29T07:03:11;6.40;;;3.07;;
12312;SDS011;6220;53.580;9.758;2022-07-29T07:05:36;6.03;;;2.90;;
12312;SDS011;6220;53.580;9.758;2022-07-29T07:08:02;8.20;;;2.77;;
12312;SDS011;6220;53.580;9.758;2022-07-29T07:10:27;4.80;;;2.63;;
12312;SDS011;6220;53.580;9.758;2022-07-29T07:12:53;4.87;;;2.83;;
12312;SDS011;6220;53.580;9.758;2022-07-29T07:15:18;10.07;;;3.70;;
12312;SDS011;6220;53.580;9.758;2022-07-29T07:17:47;7.43;;;3.07;;
12312;SDS011;6220;53.580;9.758;2022-07-29T07:20:13;7.10;;;3.20;;
12312;SDS011;6220;53.580;9.758;2022-07-29T07:22:39;4.23;;;2.50;;
12312;SDS011;6220;53.580;9.758;2022-07-29T07:25:04;6.93;;;3.47;;
12312;SDS011;6220;53.580;9.758;2022-07-29T07:27:30;6.03;;;2.90;;
12312;SDS011;6220;53.580;9.758;2022-07-29T07:29:55;6.27;;;2.87;;
12312;SDS011;6220;53.580;9.758;2022-07-29T07:32:20;7.07;;;3.10;;
12312;SDS011;6220;53.580;9.758;2022-07-29T07:34:46;7.37;;;3.23;;
12312;SDS011;6220;53.580;9.758;2022-07-29T07:37:11;8.47;;;2.90;;
12312;SDS011;6220;53.580;9.758;2022-07-29T07:39:37;5.17;;;2.50;;
12312;SDS011;6220;53.580;9.758;2022-07-29T07:42:02;5.07;;;2.50;;
12312;SDS011;6220;53.580;9.758;2022-07-29T07:44:27;6.93;;;3.27;;
12312;SDS011;6220;53.580;9.758;2022-07-29T07:46:53;6.40;;;2.90;;
12312;SDS011;6220;53.580;9.758;2022-07-29T07:49:18;8.73;;;2.70;;
12312;SDS011;6220;53.580;9.758;2022-07-29T07:51:43;5.90;;;3.20;;
12312;SDS011;6220;53.580;9.758;2022-07-29T07:54:09;9.00;;;3.20;;
12312;SDS011;6220;53.580;9.758;2022-07-29T07:56:34;10.77;;;3.10;;
12312;SDS011;6220;53.580;9.758;2022-07-29T07:58:59;4.27;;;2.70;;
12312;SDS011;6220;53.580;9.758;2022-07-29T08:01:25;8.47;;;2.80;;
12312;SDS011;6220;53.580;9.758;2022-07-29T08:03:50;5.80;;;2.50;;
12312;SDS011;6220;53.580;9.758;2022-07-29T08:06:15;5.03;;;2.87;;
12312;SDS011;6220;53.580;9.758;2022-07-29T08:08:41;8.73;;;3.20;;
12312;SDS011;6220;53.580;9.758;2022-07-29T08:11:06;8.03;;;3.00;;
12312;SDS011;6220;53.580;9.758;2022-07-29T08:13:32;5.43;;;2.80;;
12312;SDS011;6220;53.580;9.758;2022-07-29T08:15:58;5.80;;;2.50;;
12312;SDS011;6220;53.580;9.758;2022-07-29T08:18:25;5.80;;;2.87;;
12312;SDS011;6220;53.580;9.758;2022-07-29T08:20:51;6.03;;;2.70;;
12312;SDS011;6220;53.580;9.758;2022-07-29T08:23:16;5.73;;;2.50;;
12312;SDS011;6220;53.580;9.758;2022-07-29T08:25:43;4.40;;;2.60;;
12312;SDS011;6220;53.580;9.758;2022-07-29T08:28:09;4.77;;;2.50;;
12312;SDS011;6220;53.580;9.758;2022-07-29T08:30:34;6.80;;;2.80;;
12312;SDS011;6220;53.580;9.758;2022-07-29T08:33:00;4.60;;;3.07;;
12312;SDS011;6220;53.580;9.758;2022-07-29T08:35:25;6.63;;;2.70;;
12312;SDS011;6220;53.580;9.758;2022-07-29T08:37:51;4.87;;;2.43;;
12312;SDS011;6220;53.580;9.758;2022-07-29T08:40:17;3.73;;;2.70;;
12312;SDS011;6220;53.580;9.758;2022-07-29T08:42:43;5.30;;;2.73;;
12312;SDS011;6220;53.580;9.758;2022-07-29T08:45:09;5.70;;;2.80;;
12312;SDS011;6220;53.580;9.758;2022-07-29T08:47:34;5.07;;;3.00;;
12312;SDS011;6220;53.580;9.758;2022-07-29T08:50:04;6.53;;;2.97;;
12312;SDS011;6220;53.580;9.758;2022-07-29T08:52:30;5.10;;;2.27;;
12312;SDS011;6220;53.580;9.758;2022-07-29T08:54:57;5.47;;;2.67;;
12312;SDS011;6220;53.580;9.758;2022-07-29T08:57:23;7.07;;;2.70;;
12312;SDS011;6220;53.580;9.758;2022-07-29T08:59:49;3.40;;;2.40;;
12312;SDS011;6220;53.580;9.758;2022-07-29T09:02:19;9.23;;;3.00;;
12312;SDS011;6220;53.580;9.758;2022-07-29T09:04:46;6.00;;;2.57;;
12312;SDS011;6220;53.580;9.758;2022-07-29T09:07:15;5.43;;;2.97;;
12312;SDS011;6220;53.580;9.758;2022-07-29T09:09:42;4.57;;;2.47;;
12312;SDS011;6220;53.580;9.758;2022-07-29T09:12:08;6.43;;;2.90;;
12312;SDS011;6220;53.580;9.758;2022-07-29T09:14:39;6.60;;;2.50;;
12312;SDS011;6220;53.580;9.758;2022-07-29T09:17:05;8.43;;;2.70;;
12312;SDS011;6220;53.580;9.758;2022-07-29T09:19:32;3.67;;;2.33;;
12312;SDS011;6220;53.580;9.758;2022-07-29T09:22:05;5.83;;;2.40;;
12312;SDS011;6220;53.580;9.758;2022-07-29T09:27:00;6.90;;;2.60;;
12312;SDS011;6220;53.580;9.758;2022-07-29T09:29:26;6.27;;;2.77;;
12312;SDS011;6220;53.580;9.758;2022-07-29T09:31:53;4.50;;;2.50;;
12312;SDS011;6220;53.580;9.758;2022-07-29T09:36:53;6.83;;;2.63;;
12312;SDS011;6220;53.580;9.758;2022-07-29T09:39:29;4.80;;;2.20;;
12312;SDS011;6220;53.580;9.758;2022-07-29T09:41:56;6.00;;;2.60;;
12312;SDS011;6220;53.580;9.758;2022-07-29T09:44:22;6.57;;;2.50;;
12312;SDS011;6220;53.580;9.758;2022-07-29T09:47:02;6.77;;;2.30;;
12312;SDS011;6220;53.580;9.758;2022-07-29T09:49:31;9.27;;;2.80;;
12312;SDS011;6220;53.580;9.758;2022-07-29T09:52:04;4.50;;;2.30;;
12312;SDS011;6220;53.580;9.758;2022-07-29T09:54:32;5.40;;;2.20;;
12312;SDS011;6220;53.580;9.758;2022-07-29T09:57:04;6.27;;;2.30;;
12312;SDS011;6220;53.580;9.758;2022-07-29T09:59:31;5.80;;;2.07;;
12312;SDS011;6220;53.580;9.758;2022-07-29T10:01:57;3.83;;;2.03;;
12312;SDS011;6220;53.580;9.758;2022-07-29T10:04:22;5.67;;;2.20;;
12312;SDS011;6220;53.580;9.758;2022-07-29T10:09:23;6.83;;;2.27;;
12312;SDS011;6220;53.580;9.758;2022-07-29T10:12:09;6.63;;;2.40;;
12312;SDS011;6220;53.580;9.758;2022-07-29T10:14:39;3.93;;;2.20;;
12312;SDS011;6220;53.580;9.758;2022-07-29T10:17:06;4.13;;;2.17;;
12312;SDS011;6220;53.580;9.758;2022-07-29T10:19:33;5.43;;;2.00;;
12312;SDS011;6220;53.580;9.758;2022-07-29T10:21:59;4.83;;;2.10;;
12312;SDS011;6220;53.580;9.758;2022-07-29T10:24:29;4.80;;;2.13;;
12312;SDS011;6220;53.580;9.758;2022-07-29T10:26:56;7.17;;;2.40;;
12312;SDS011;6220;53.580;9.758;2022-07-29T10:29:22;4.20;;;2.03;;
12312;SDS011;6220;53.580;9.758;2022-07-29T10:43:24;3.17;;;1.90;;
12312;SDS011;6220;53.580;9.758;2022-07-29T10:45:56;3.37;;;1.73;;
12312;SDS011;6220;53.580;9.758;2022-07-29T10:48:23;5.47;;;2.47;;
12312;SDS011;6220;53.580;9.758;2022-07-29T10:50:56;5.20;;;2.43;;
12312;SDS011;6220;53.580;9.758;2022-07-29T10:56:22;4.07;;;1.80;;
12312;SDS011;6220;53.580;9.758;2022-07-29T10:59:22;3.53;;;2.10;;
12312;SDS011;6220;53.580;9.758;2022-07-29T11:01:43;6.83;;;2.40;;
12312;SDS011;6220;53.580;9.758;2022-07-29T11:04:08;5.87;;;1.83;;
12312;SDS011;6220;53.580;9.758;2022-07-29T11:09:27;6.07;;;2.30;;
12312;SDS011;6220;53.580;9.758;2022-07-29T11:11:55;4.83;;;2.10;;
12312;SDS011;6220;53.580;9.758;2022-07-29T11:14:54;4.27;;;2.37;;
12312;SDS011;6220;53.580;9.758;2022-07-29T11:17:26;7.13;;;2.50;;
12312;SDS011;6220;53.580;9.758;2022-07-29T11:19:56;3.50;;;1.87;;
12312;SDS011;6220;53.580;9.758;2022-07-29T11:22:55;7.00;;;2.07;;
12312;SDS011;6220;53.580;9.758;2022-07-29T11:25:30;4.43;;;2.10;;
12312;SDS011;6220;53.580;9.758;2022-07-29T11:28:08;7.10;;;2.13;;
12312;SDS011;6220;53.580;9.758;2022-07-29T11:30:49;5.40;;;2.00;;
12312;SDS011;6220;53.580;9.758;2022-07-29T11:33:31;6.80;;;1.80;;
12312;SDS011;6220;53.580;9.758;2022-07-29T11:36:10;4.37;;;2.17;;
12312;SDS011;6220;53.580;9.758;2022-07-29T11:38:39;4.83;;;1.97;;
12312;SDS011;6220;53.580;9.758;2022-07-29T11:41:24;7.10;;;2.03;;
12312;SDS011;6220;53.580;9.758;2022-07-29T11:43:54;3.57;;;1.90;;
12312;SDS011;6220;53.580;9.758;2022-07-29T11:49:10;4.53;;;2.00;;
12312;SDS011;6220;53.580;9.758;2022-07-29T11:51:37;5.70;;;1.80;;
12312;SDS011;6220;53.580;9.758;2022-07-29T11:54:02;6.57;;;2.33;;
12312;SDS011;6220;53.580;9.758;2022-07-29T11:56:29;4.80;;;1.90;;
12312;SDS011;6220;53.580;9.758;2022-07-29T11:59:06;4.17;;;1.70;;
12312;SDS011;6220;53.580;9.758;2022-07-29T12:01:34;4.73;;;2.17;;
12312;SDS011;6220;53.580;9.758;2022-07-29T12:04:05;7.57;;;2.03;;
12312;SDS011;6220;53.580;9.758;2022-07-29T12:06:31;3.73;;;1.80;;
12312;SDS011;6220;53.580;9.758;2022-07-29T12:08:58;4.77;;;1.83;;
12312;SDS011;6220;53.580;9.758;2022-07-29T12:11:23;4.00;;;1.80;;
12312;SDS011;6220;53.580;9.758;2022-07-29T12:13:49;4.77;;;1.90;;
12312;SDS011;6220;53.580;9.758;2022-07-29T12:16:15;6.77;;;2.10;;
12312;SDS011;6220;53.580;9.758;2022-07-29T12:18:41;8.10;;;2.40;;
12312;SDS011;6220;53.580;9.758;2022-07-29T12:21:06;4.17;;;2.00;;
12312;SDS011;6220;53.580;9.758;2022-07-29T12:23:33;6.53;;;2.00;;
12312;SDS011;6220;53.580;9.758;2022-07-29T12:25:58;2.97;;;1.70;;
12312;SDS011;6220;53.580;9.758;2022-07-29T12:28:24;6.80;;;2.03;;
12312;SDS011;6220;53.580;9.758;2022-07-29T12:30:49;2.80;;;1.83;;
12312;SDS011;6220;53.580;9.758;2022-07-29T12:33:25;3.90;;;1.77;;
12312;SDS011;6220;53.580;9.758;2022-07-29T12:35:56;4.10;;;1.70;;
12312;SDS011;6220;53.580;9.758;2022-07-29T12:38:22;3.13;;;1.60;;
12312;SDS011;6220;53.580;9.758;2022-07-29T12:40:48;5.10;;;1.77;;
12312;SDS011;6220;53.580;9.758;2022-07-29T12:43:16;3.33;;;1.80;;
12312;SDS011;6220;53.580;9.758;2022-07-29T12:45:44;4.10;;;1.90;;
12312;SDS011;6220;53.580;9.758;2022-07-29T12:48:11;5.87;;;1.63;;
12312;SDS011;6220;53.580;9.758;2022-07-29T12:50:50;5.10;;;1.97;;
12312;SDS011;6220;53.580;9.758;2022-07-29T12:53:17;6.07;;;2.50;;
12312;SDS011;6220;53.580;9.758;2022-07-29T12:55:49;6.97;;;2.07;;
12312;SDS011;6220;53.580;9.758;2022-07-29T12:58:32;4.07;;;1.53;;
12312;SDS011;6220;53.580;9.758;2022-07-29T13:01:19;5.27;;;2.13;;
12312;SDS011;6220;53.580;9.758;2022-07-29T13:03:52;4.07;;;1.90;;
12312;SDS011;6220;53.580;9.758;2022-07-29T13:11:36;5.03;;;2.00;;
12312;SDS011;6220;53.580;9.758;2022-07-29T13:14:04;5.13;;;2.10;;
12312;SDS011;6220;53.580;9.758;2022-07-29T13:16:31;3.00;;;1.67;;
12312;SDS011;6220;53.580;9.758;2022-07-29T13:19:03;8.67;;;1.93;;
12312;SDS011;6220;53.580;9.758;2022-07-29T13:21:29;4.40;;;1.70;;
12312;SDS011;6220;53.580;9.758;2022-07-29T13:23:55;14.80;;;2.27;;
12312;SDS011;6220;53.580;9.758;2022-07-29T13:26:20;5.43;;;1.90;;
12312;SDS011;6220;53.580;9.758;2022-07-29T13:28:45;6.93;;;2.20;;
12312;SDS011;6220;53.580;9.758;2022-07-29T13:31:11;3.97;;;2.07;;
12312;SDS011;6220;53.580;9.758;2022-07-29T13:33:36;5.20;;;1.90;;
12312;SDS011;6220;53.580;9.758;2022-07-29T13:36:01;12.90;;;1.87;;
12312;SDS011;6220;53.580;9.758;2022-07-29T13:38:27;3.50;;;1.80;;
12312;SDS011;6220;53.580;9.758;2022-07-29T13:40:52;5.20;;;2.07;;
12312;SDS011;6220;53.580;9.758;2022-07-29T13:43:17;3.33;;;2.10;;
12312;SDS011;6220;53.580;9.758;2022-07-29T13:45:43;3.60;;;1.87;;
12312;SDS011;6220;53.580;9.758;2022-07-29T13:48:08;3.40;;;1.70;;
12312;SDS011;6220;53.580;9.758;2022-07-29T13:50:33;4.80;;;1.90;;
12312;SDS011;6220;53.580;9.758;2022-07-29T13:52:59;5.03;;;1.60;;
12312;SDS011;6220;53.580;9.758;2022-07-29T13:55:24;3.50;;;2.00;;
12312;SDS011;6220;53.580;9.758;2022-07-29T13:57:50;4.53;;;2.20;;
12312;SDS011;6220;53.580;9.758;2022-07-29T14:00:15;2.97;;;1.60;;
12312;SDS011;6220;53.580;9.758;2022-07-29T14:02:41;5.13;;;2.13;;
12312;SDS011;6220;53.580;9.758;2022-07-29T14:05:07;4.50;;;2.17;;
12312;SDS011;6220;53.580;9.758;2022-07-29T14:07:33;6.40;;;2.27;;
12312;SDS011;6220;53.580;9.758;2022-07-29T14:09:58;5.57;;;2.50;;
12312;SDS011;6220;53.580;9.758;2022-07-29T14:12:24;9.57;;;2.20;;
12312;SDS011;6220;53.580;9.758;2022-07-29T14:14:49;6.17;;;2.30;;
12312;SDS011;6220;53.580;9.758;2022-07-29T14:17:15;6.87;;;2.40;;
12312;SDS011;6220;53.580;9.758;2022-07-29T14:19:40;4.10;;;2.60;;
12312;SDS011;6220;53.580;9.758;2022-07-29T14:22:06;10.20;;;2.50;;
12312;SDS011;6220;53.580;9.758;2022-07-29T14:24:32;3.30;;;2.13;;
12312;SDS011;6220;53.580;9.758;2022-07-29T14:26:58;6.33;;;2.40;;
12312;SDS011;6220;53.580;9.758;2022-07-29T14:29:23;5.87;;;1.97;;
12312;SDS011;6220;53.580;9.758;2022-07-29T14:31:48;8.67;;;2.63;;
12312;SDS011;6220;53.580;9.758;2022-07-29T14:34:14;11.70;;;2.37;;
12312;SDS011;6220;53.580;9.758;2022-07-29T14:36:40;6.93;;;2.27;;
12312;SDS011;6220;53.580;9.758;2022-07-29T14:39:06;5.83;;;2.20;;
12312;SDS011;6220;53.580;9.758;2022-07-29T14:41:31;4.53;;;2.40;;
12312;SDS011;6220;53.580;9.758;2022-07-29T14:43:57;3.70;;;2.30;;
12312;SDS011;6220;53.580;9.758;2022-07-29T14:46:25;4.23;;;2.43;;
12312;SDS011;6220;53.580;9.758;2022-07-29T14:48:51;4.23;;;2.00;;
12312;SDS011;6220;53.580;9.758;2022-07-29T14:51:16;5.20;;;2.03;;
12312;SDS011;6220;53.580;9.758;2022-07-29T14:53:42;4.03;;;2.03;;
12312;SDS011;6220;53.580;9.758;2022-07-29T14:56:08;3.43;;;2.40;;
12312;SDS011;6220;53.580;9.758;2022-07-29T14:58:33;5.40;;;2.33;;
12312;SDS011;6220;53.580;9.758;2022-07-29T15:00:58;6.13;;;2.20;;
12312;SDS011;6220;53.580;9.758;2022-07-29T15:03:24;6.50;;;2.50;;
12312;SDS011;6220;53.580;9.758;2022-07-29T15:05:49;6.57;;;2.63;;
12312;SDS011;6220;53.580;9.758;2022-07-29T15:08:14;4.00;;;2.30;;
12312;SDS011;6220;53.580;9.758;2022-07-29T15:10:40;4.17;;;2.27;;
12312;SDS011;6220;53.580;9.758;2022-07-29T15:13:05;5.00;;;2.23;;
12312;SDS011;6220;53.580;9.758;2022-07-29T15:15:30;5.90;;;2.30;;
12312;SDS011;6220;53.580;9.758;2022-07-29T15:17:57;6.77;;;2.73;;
12312;SDS011;6220;53.580;9.758;2022-07-29T15:20:22;6.83;;;2.20;;
12312;SDS011;6220;53.580;9.758;2022-07-29T15:22:50;7.50;;;2.70;;
12312;SDS011;6220;53.580;9.758;2022-07-29T15:25:15;7.53;;;2.37;;
12312;SDS011;6220;53.580;9.758;2022-07-29T15:27:40;5.67;;;2.07;;
12312;SDS011;6220;53.580;9.758;2022-07-29T15:30:06;4.50;;;1.93;;
12312;SDS011;6220;53.580;9.758;2022-07-29T15:32:32;4.33;;;2.20;;
12312;SDS011;6220;53.580;9.758;2022-07-29T15:41:32;4.80;;;2.27;;
12312;SDS011;6220;53.580;9.758;2022-07-29T15:43:57;4.50;;;2.30;;
12312;SDS011;6220;53.580;9.758;2022-07-29T15:46:23;4.37;;;2.30;;
12312;SDS011;6220;53.580;9.758;2022-07-29T15:49:07;7.20;;;2.07;;
12312;SDS011;6220;53.580;9.758;2022-07-29T15:51:32;7.93;;;2.20;;
12312;SDS011;6220;53.580;9.758;2022-07-29T15:53:58;5.13;;;2.30;;
12312;SDS011;6220;53.580;9.758;2022-07-29T15:56:25;4.40;;;1.93;;